Sanlucar la Mayor, Spain
Current Conditions -  °F | °C
As of 6:00 AM on Tuesday 23 Dec 2014 (Local Time) from LEZL Reporting Station
Clear Clear  
Wind Chill: 42°   Ceiling: Unl
Heat Index: 45°   Visibility: 6mi
Dew Point: 43°   Wind: 5mph
Humidity: 93%   Direction: 40°NE
Pressure: 30.33"   Gusts: NA
Location:  37.39°N, 6.2°W
Report Text: LEZL 230500Z 04004KT 010V070 CAVOK 07/06 Q1027 NOSIG
Loading
Personal Weather Stations






























Interactive Weather Map New forecast layout! Learn more

10-Day Weather Forecast

Advertisements
Track Severe Weather on mobile